Time;durP1;ratioP1;P1;durP2;ratioP2;P2;SDS_P1;SDS_P2;PMS_P1;PMS_P2;Temp;Humidity;BMP_temperature;BMP_pressure;BME280_temperature;BME280_humidity;BME280_pressure;Samples;Min_cycle;Max_cycle;Signal;HPM_P1;HPM_P2
2024/03/07 00:00:21;;;;;;;27.20;14.95;;;;;;;7.86;90.65;99676.19;5050147;28;20392;-26
2024/03/07 00:02:51;;;;;;;27.75;15.35;;;;;;;7.80;91.40;99674.28;5050216;28;20036;-26
2024/03/07 00:05:18;;;;;;;32.08;16.17;;;;;;;7.87;91.20;99661.94;5050449;28;20028;-25
2024/03/07 00:07:44;;;;;;;29.15;15.73;;;;;;;7.94;91.59;99662.00;5050278;28;20025;-26
2024/03/07 00:10:10;;;;;;;28.55;14.82;;;;;;;8.31;90.09;99663.56;5049987;28;20047;-26
2024/03/07 00:12:40;;;;;;;33.90;15.15;;;;;;;8.00;90.80;99651.47;5050517;28;20071;-26
2024/03/07 00:15:07;;;;;;;32.22;15.23;;;;;;;7.94;92.34;99662.84;5050268;28;20020;-26
2024/03/07 00:17:33;;;;;;;27.10;15.00;;;;;;;7.79;92.09;99654.13;5050418;28;20037;-26
2024/03/07 00:19:58;;;;;;;26.33;14.05;;;;;;;7.59;93.59;99656.53;5050979;28;20028;-25
2024/03/07 00:22:26;;;;;;;32.40;15.35;;;;;;;7.79;93.00;99665.53;5051172;28;20025;-39
2024/03/07 00:24:53;;;;;;;29.73;15.70;;;;;;;7.71;93.92;99663.00;5050640;28;20029;-40
2024/03/07 00:27:20;;;;;;;29.45;16.00;;;;;;;7.99;92.80;99655.13;5051015;28;20045;-27
2024/03/07 00:29:52;;;;;;;30.60;15.40;;;;;;;8.02;92.52;99652.09;5049623;28;20170;-26
2024/03/07 00:32:18;;;;;;;28.98;15.52;;;;;;;8.05;91.64;99656.19;5050848;28;20021;-26
2024/03/07 00:34:44;;;;;;;28.05;15.52;;;;;;;7.87;92.46;99661.13;5050179;28;20059;-25
2024/03/07 00:37:09;;;;;;;30.60;15.63;;;;;;;7.85;92.57;99660.50;5050413;28;20112;-25
2024/03/07 00:39:35;;;;;;;32.00;15.70;;;;;;;7.91;92.03;99665.84;5050219;28;20151;-26
2024/03/07 00:42:00;;;;;;;26.77;14.65;;;;;;;7.94;91.66;99662.84;5049835;28;20112;-26
2024/03/07 00:44:26;;;;;;;35.75;14.75;;;;;;;8.17;91.00;99659.19;5054224;28;20033;-26
2024/03/07 00:46:52;;;;;;;32.85;15.85;;;;;;;7.79;92.13;99662.06;5053920;28;20106;-25
2024/03/07 00:49:17;;;;;;;26.50;14.43;;;;;;;7.75;92.19;99655.47;5053864;28;20029;-25
2024/03/07 00:51:44;;;;;;;29.45;14.93;;;;;;;7.77;92.68;99656.94;5053823;28;20024;-26
2024/03/07 00:54:12;;;;;;;25.85;13.98;;;;;;;7.97;91.31;99648.38;5054039;28;20056;-25
2024/03/07 00:56:38;;;;;;;23.67;13.93;;;;;;;7.71;92.21;99655.06;5053777;28;20031;-25
2024/03/07 00:59:03;;;;;;;24.60;14.27;;;;;;;7.77;91.79;99640.22;5053783;28;20104;-26
2024/03/07 01:01:29;;;;;;;29.80;15.90;;;;;;;7.73;92.25;99650.38;5053887;28;20044;-26
2024/03/07 01:03:54;;;;;;;26.00;13.93;;;;;;;7.71;91.55;99640.97;5036484;28;20485;-26
2024/03/07 01:06:20;;;;;;;27.05;14.88;;;;;;;7.81;91.34;99642.31;5033885;28;20032;-27
2024/03/07 01:08:45;;;;;;;24.30;13.63;;;;;;;7.72;91.66;99653.22;5033840;28;20101;-26
2024/03/07 01:11:12;;;;;;;26.17;13.70;;;;;;;7.75;91.02;99650.16;5034021;28;20017;-26
2024/03/07 01:13:38;;;;;;;25.58;14.35;;;;;;;7.79;90.93;99651.47;5033745;28;20021;-26
2024/03/07 01:16:04;;;;;;;29.75;14.07;;;;;;;7.74;90.13;99644.06;5033631;28;20044;-26
2024/03/07 01:18:31;;;;;;;27.25;14.65;;;;;;;7.54;91.43;99643.00;5033739;28;20486;-25
2024/03/07 01:20:57;;;;;;;26.52;14.50;;;;;;;7.89;90.05;99651.97;5034247;28;20446;-25
2024/03/07 01:23:22;;;;;;;26.80;13.23;;;;;;;7.98;88.67;99647.38;5034055;28;20109;-26
2024/03/07 01:25:48;;;;;;;28.08;14.70;;;;;;;7.98;88.24;99645.53;5033684;28;20583;-25
2024/03/07 01:28:14;;;;;;;27.10;14.43;;;;;;;7.62;89.54;99646.38;5034301;28;20048;-26
2024/03/07 01:30:40;;;;;;;29.25;14.80;;;;;;;7.57;89.45;99646.09;5033982;28;20087;-26
2024/03/07 01:33:05;;;;;;;28.42;13.80;;;;;;;7.30;90.73;99649.47;5034101;28;20029;-25
2024/03/07 01:35:31;;;;;;;27.08;14.70;;;;;;;7.58;89.43;99654.91;5033976;28;20021;-27
2024/03/07 01:37:56;;;;;;;29.73;14.65;;;;;;;7.78;88.42;99649.81;5033973;28;20022;-39
2024/03/07 01:40:22;;;;;;;24.02;13.18;;;;;;;7.45;89.62;99639.66;5034115;28;20021;-40
2024/03/07 01:42:50;;;;;;;30.58;14.25;;;;;;;7.83;88.08;99658.03;5034278;28;20087;-40
2024/03/07 01:45:16;;;;;;;26.88;13.90;;;;;;;7.68;88.31;99655.41;5033978;28;20056;-26
2024/03/07 01:47:41;;;;;;;28.35;13.50;;;;;;;7.53;89.50;99660.72;5034616;28;20361;-27
2024/03/07 01:50:07;;;;;;;27.92;14.00;;;;;;;7.59;88.05;99649.38;5033711;28;20021;-39
2024/03/07 01:52:33;;;;;;;27.10;14.00;;;;;;;8.02;86.83;99643.34;5033859;28;20037;-27
2024/03/07 01:54:58;;;;;;;27.88;13.82;;;;;;;7.98;85.80;99640.25;5032659;28;20034;-37
2024/03/07 01:57:25;;;;;;;31.08;14.20;;;;;;;7.75;86.83;99651.00;5044516;28;20405;-39
2024/03/07 01:59:51;;;;;;;26.45;14.30;;;;;;;7.63;87.42;99650.69;5053080;28;20021;-40
2024/03/07 02:02:19;;;;;;;25.20;13.80;;;;;;;7.65;87.05;99639.88;5053492;28;20029;-37
2024/03/07 02:04:45;;;;;;;29.95;15.10;;;;;;;7.60;88.03;99643.09;5053350;28;20087;-37
2024/03/07 02:07:13;;;;;;;27.08;14.15;;;;;;;7.76;87.62;99654.47;5053143;28;20055;-38
2024/03/07 02:09:38;;;;;;;26.77;14.05;;;;;;;7.64;87.00;99654.97;5053175;28;20517;-39
2024/03/07 02:12:04;;;;;;;24.92;13.73;;;;;;;7.34;88.42;99650.72;5052944;28;20087;-37
2024/03/07 02:14:29;;;;;;;26.92;14.45;;;;;;;7.30;88.88;99644.97;5052352;28;20033;-39
2024/03/07 02:16:58;;;;;;;31.23;14.68;;;;;;;7.54;88.56;99653.59;5053072;28;20036;-39
2024/03/07 02:19:24;;;;;;;24.50;14.35;;;;;;;7.69;87.00;99649.13;5052896;28;20099;-41
2024/03/07 02:21:50;;;;;;;29.35;14.82;;;;;;;7.38;87.77;99654.66;5050106;28;20469;-38
2024/03/07 02:24:15;;;;;;;28.33;13.82;;;;;;;7.03;89.65;99655.22;5039988;28;20058;-40
2024/03/07 02:26:41;;;;;;;27.70;14.07;;;;;;;7.22;88.20;99639.78;5052684;28;20448;-39
2024/03/07 02:29:06;;;;;;;28.25;13.27;;;;;;;7.28;88.66;99662.06;5052597;28;20473;-39
2024/03/07 02:31:36;;;;;;;26.67;14.32;;;;;;;7.15;89.37;99657.41;5051650;28;20107;-39
2024/03/07 02:34:02;;;;;;;;;;;;;;;7.00;90.12;99650.28;5051775;28;20013;-39
2024/03/07 02:36:28;;;;;;;28.88;13.98;;;;;;;7.29;88.59;99648.66;5051157;28;19916;-39
2024/03/07 02:38:54;;;;;;;30.70;15.10;;;;;;;7.17;89.03;99635.03;5050957;28;20025;-37
2024/03/07 02:41:19;;;;;;;27.63;13.70;;;;;;;6.85;91.16;99630.94;5051056;28;20033;-38
2024/03/07 02:43:45;;;;;;;26.10;14.45;;;;;;;7.13;90.51;99630.31;5051281;28;20036;-39
2024/03/07 02:46:11;;;;;;;28.25;13.98;;;;;;;7.24;88.77;99637.78;5051639;28;20051;-37
2024/03/07 02:48:38;;;;;;;27.30;14.65;;;;;;;7.31;88.61;99651.94;5052577;28;20028;-39
2024/03/07 02:51:05;;;;;;;28.13;13.52;;;;;;;7.31;88.33;99640.50;5052522;28;20033;-39
2024/03/07 02:53:32;;;;;;;30.17;14.82;;;;;;;7.41;87.80;99649.81;5052565;28;20082;-40
2024/03/07 02:55:57;;;;;;;26.52;14.10;;;;;;;7.15;88.43;99654.75;5052117;28;20029;-37
2024/03/07 02:58:24;;;;;;;26.33;13.48;;;;;;;7.28;88.23;99652.28;5052080;28;20037;-40
2024/03/07 03:00:57;;;;;;;26.38;13.07;;;;;;;6.78;89.56;99648.56;5052647;28;20036;-40
2024/03/07 03:03:22;;;;;;;26.58;13.77;;;;;;;6.91;89.37;99630.22;5052071;28;20120;-36
2024/03/07 03:05:48;;;;;;;22.50;12.05;;;;;;;7.00;88.87;99646.81;5051606;28;20109;-39
2024/03/07 03:08:13;;;;;;;26.48;12.70;;;;;;;7.03;88.13;99649.09;5052281;28;20139;-41
2024/03/07 03:10:39;;;;;;;27.50;13.73;;;;;;;6.97;89.25;99642.72;5052262;28;20035;-38
2024/03/07 03:13:05;;;;;;;23.92;12.82;;;;;;;6.97;88.06;99637.44;5052020;28;20024;-39
2024/03/07 03:15:31;;;;;;;23.38;12.30;;;;;;;7.04;87.68;99646.28;5052228;28;20390;-40
2024/03/07 03:18:00;;;;;;;27.50;13.15;;;;;;;7.05;87.31;99652.38;5051372;28;20037;-37
2024/03/07 03:20:26;;;;;;;26.00;13.40;;;;;;;7.30;86.31;99647.63;5051534;28;20029;-38
2024/03/07 03:22:54;;;;;;;27.48;13.30;;;;;;;7.03;87.01;99641.97;5051757;28;20103;-38
2024/03/07 03:25:21;;;;;;;26.17;13.35;;;;;;;7.15;86.82;99644.97;5051528;28;20041;-39
2024/03/07 03:27:49;;;;;;;30.60;13.10;;;;;;;7.09;86.33;99652.84;5051688;28;20060;-36
2024/03/07 03:30:18;;;;;;;23.08;12.52;;;;;;;6.71;88.52;99653.72;5052008;28;20087;-39
2024/03/07 03:32:45;;;;;;;27.13;12.48;;;;;;;7.01;87.09;99654.56;5051442;28;20499;-39
2024/03/07 03:35:13;;;;;;;27.67;13.10;;;;;;;6.87;87.74;99639.50;5051526;28;20032;-40
2024/03/07 03:37:47;;;;;;;25.40;12.35;;;;;;;6.92;87.40;99639.78;5051482;28;20484;-40
2024/03/07 03:40:13;;;;;;;26.52;12.45;;;;;;;7.10;86.84;99641.25;5051428;28;20116;-39
2024/03/07 03:42:39;;;;;;;24.20;12.68;;;;;;;7.28;85.41;99641.69;5051102;28;20107;-40
2024/03/07 03:45:06;;;;;;;24.10;12.20;;;;;;;7.30;85.13;99646.81;5051021;28;20056;-40
2024/03/07 03:47:38;;;;;;;25.00;13.02;;;;;;;7.29;85.45;99651.28;5051224;28;20028;-39
2024/03/07 03:50:05;;;;;;;22.92;12.68;;;;;;;6.81;86.74;99650.81;5051013;28;20037;-40
2024/03/07 03:52:30;;;;;;;25.58;12.52;;;;;;;7.02;86.54;99648.25;5035486;28;20457;-38
2024/03/07 03:54:57;;;;;;;25.50;11.25;;;;;;;7.02;86.29;99648.25;5034634;28;20063;-40
2024/03/07 03:57:22;;;;;;;26.63;12.50;;;;;;;6.98;86.34;99657.56;5051007;28;20040;-39
2024/03/07 03:59:48;;;;;;;23.52;12.52;;;;;;;7.29;85.18;99642.50;5042883;28;20029;-39
2024/03/07 04:02:13;;;;;;;28.77;12.55;;;;;;;7.19;85.11;99646.25;5030779;28;20040;-40
2024/03/07 04:04:40;;;;;;;25.05;13.23;;;;;;;7.18;85.81;99644.63;5031063;28;20033;-40
2024/03/07 04:07:05;;;;;;;27.75;13.07;;;;;;;7.19;85.71;99654.19;5030865;28;20465;-39
2024/03/07 04:09:31;;;;;;;23.58;12.55;;;;;;;7.11;85.38;99650.84;5031178;28;20127;-39
2024/03/07 04:11:57;;;;;;;23.00;12.23;;;;;;;7.04;86.50;99650.72;5031324;28;20465;-40
2024/03/07 04:14:23;;;;;;;25.83;12.63;;;;;;;7.15;85.37;99654.75;5030643;28;20033;-40
2024/03/07 04:16:48;;;;;;;24.58;12.63;;;;;;;7.32;84.92;99642.97;5030495;28;20048;-40
2024/03/07 04:19:13;;;;;;;25.65;13.15;;;;;;;7.20;85.12;99649.75;5030602;28;20029;-40
2024/03/07 04:21:39;;;;;;;24.80;12.65;;;;;;;7.29;85.01;99650.44;5030958;28;20120;-38
2024/03/07 04:24:05;;;;;;;24.15;12.10;;;;;;;7.39;84.59;99641.22;5031198;28;20021;-39
2024/03/07 04:26:30;;;;;;;26.90;13.23;;;;;;;7.87;82.71;99651.34;5030644;28;20552;-39
2024/03/07 04:28:57;;;;;;;24.38;12.07;;;;;;;7.50;83.96;99652.34;5030752;28;20433;-39
2024/03/07 04:31:23;;;;;;;25.48;13.43;;;;;;;7.50;84.37;99649.69;5030653;28;20033;-38
2024/03/07 04:33:48;;;;;;;26.63;13.98;;;;;;;7.77;82.93;99650.84;5030855;28;20078;-41
2024/03/07 04:36:14;;;;;;;26.30;13.02;;;;;;;7.64;82.90;99649.66;5030644;28;20022;-39
2024/03/07 04:38:44;;;;;;;24.08;12.48;;;;;;;7.42;84.35;99643.50;5030876;28;20017;-39
2024/03/07 04:41:11;;;;;;;25.95;13.43;;;;;;;6.98;86.70;99654.13;5029951;28;20026;-40
2024/03/07 04:43:37;;;;;;;25.20;12.43;;;;;;;6.94;87.24;99656.31;5031120;28;20060;-40
2024/03/07 04:46:02;;;;;;;27.50;13.90;;;;;;;7.19;86.68;99653.38;5030644;28;20445;-40
2024/03/07 04:48:28;;;;;;;25.98;13.43;;;;;;;7.25;86.84;99642.06;5030765;28;20051;-37
2024/03/07 04:50:53;;;;;;;34.35;13.35;;;;;;;7.40;86.10;99652.63;5030742;28;20037;-39
2024/03/07 04:53:18;;;;;;;26.50;12.93;;;;;;;7.02;86.84;99647.44;5031250;28;20110;-39
2024/03/07 04:55:44;;;;;;;25.38;13.15;;;;;;;6.99;87.59;99661.06;5048991;28;20044;-38
2024/03/07 04:58:09;;;;;;;27.88;14.32;;;;;;;7.16;87.90;99664.31;5050422;28;20406;-40
2024/03/07 05:00:34;;;;;;;25.98;12.70;;;;;;;6.91;88.45;99669.91;5050396;28;20033;-38
2024/03/07 05:03:00;;;;;;;26.20;13.32;;;;;;;6.92;89.14;99663.59;5050434;28;20087;-39
2024/03/07 05:05:26;;;;;;;30.10;13.48;;;;;;;7.05;88.35;99662.97;5051208;28;20037;-36
2024/03/07 05:07:52;;;;;;;23.90;12.43;;;;;;;7.03;88.22;99649.09;5050901;28;20412;-38
2024/03/07 05:10:17;;;;;;;26.27;13.63;;;;;;;7.04;89.37;99662.16;5050465;28;20614;-40
2024/03/07 05:12:43;;;;;;;25.95;13.75;;;;;;;6.95;90.41;99673.84;5050442;28;20078;-39
2024/03/07 05:15:11;;;;;;;28.83;14.57;;;;;;;7.17;89.96;99671.28;5050827;28;20468;-39
2024/03/07 05:17:38;;;;;;;25.95;13.57;;;;;;;7.35;88.87;99666.44;5050759;28;20481;-41
2024/03/07 05:20:10;;;;;;;28.98;13.98;;;;;;;7.38;88.83;99676.63;5050481;28;20117;-37
2024/03/07 05:22:47;;;;;;;30.92;15.43;;;;;;;7.31;88.60;99674.91;5050544;28;20477;-39
2024/03/07 05:25:13;;;;;;;28.65;13.98;;;;;;;7.06;89.96;99659.31;5050769;28;20033;-40
2024/03/07 05:27:39;;;;;;;29.25;14.60;;;;;;;7.08;90.14;99670.53;5050611;28;20044;-38
2024/03/07 05:30:11;;;;;;;32.25;14.70;;;;;;;7.23;90.53;99673.19;5052596;28;20465;-40
2024/03/07 05:32:37;;;;;;;31.17;14.45;;;;;;;7.21;91.63;99678.66;5054216;28;20017;-38
2024/03/07 05:35:03;;;;;;;32.72;14.35;;;;;;;7.20;91.80;99674.38;5054534;28;20071;-39
2024/03/07 05:37:28;;;;;;;36.67;15.95;;;;;;;7.15;91.66;99686.53;5054549;28;20025;-41
2024/03/07 05:39:54;;;;;;;31.27;15.90;;;;;;;7.21;90.23;99677.84;5054159;28;20457;-40
2024/03/07 05:42:19;;;;;;;33.17;15.23;;;;;;;7.20;90.64;99684.16;5054034;28;20025;-40
2024/03/07 05:44:45;;;;;;;32.33;14.82;;;;;;;7.13;90.61;99685.88;5054418;28;20025;-40
2024/03/07 05:47:13;;;;;;;32.80;15.18;;;;;;;7.09;91.24;99687.25;5054583;28;20097;-41
2024/03/07 05:49:39;;;;;;;29.02;14.57;;;;;;;7.43;89.54;99689.34;5054615;28;20031;-41
2024/03/07 05:52:05;;;;;;;29.80;13.50;;;;;;;7.37;93.21;99693.53;5048537;28;20111;-40
2024/03/07 05:54:32;;;;;;;29.58;15.52;;;;;;;7.42;90.43;99707.06;5033683;28;20483;-40
2024/03/07 05:56:57;;;;;;;33.03;15.93;;;;;;;7.53;89.75;99718.19;5033815;28;20409;-41
2024/03/07 05:59:22;;;;;;;30.38;15.88;;;;;;;7.68;89.31;99715.53;5033785;28;20022;-40
2024/03/07 06:01:48;;;;;;;38.00;15.93;;;;;;;8.31;86.73;99708.66;5033636;28;20394;-40
2024/03/07 06:04:15;;;;;;;35.65;15.38;;;;;;;7.86;87.24;99710.63;5033697;28;20029;-41
2024/03/07 06:06:41;;;;;;;35.53;15.75;;;;;;;7.36;89.98;99715.72;5033403;28;20021;-39
2024/03/07 06:09:09;;;;;;;34.08;16.02;;;;;;;7.61;89.59;99720.72;5033976;28;20029;-39
2024/03/07 06:11:35;;;;;;;42.47;18.83;;;;;;;7.67;89.27;99721.81;5033490;28;20025;-40
2024/03/07 06:14:02;;;;;;;35.15;18.10;;;;;;;7.59;89.40;99712.94;5033735;28;20044;-40
2024/03/07 06:16:32;;;;;;;36.95;16.00;;;;;;;7.34;90.42;99735.44;5033539;28;20401;-40
2024/03/07 06:18:58;;;;;;;;;;;;;;;7.50;90.81;99737.06;5034416;28;20132;-39
2024/03/07 06:21:23;;;;;;;33.45;15.65;;;;;;;7.66;89.90;99738.72;5033523;28;20403;-41
2024/03/07 06:23:55;;;;;;;33.20;16.23;;;;;;;7.98;97.37;99732.19;5034040;28;20036;-41
2024/03/07 06:26:36;;;;;;;37.55;16.55;;;;;;;7.93;89.52;99730.06;5033715;28;20049;-43
2024/03/07 06:29:02;;;;;;;39.65;16.77;;;;;;;7.77;90.76;99731.13;5033931;28;20032;-39
2024/03/07 06:31:28;;;;;;;38.47;16.80;;;;;;;7.61;92.24;99726.81;5033555;28;20021;-40
2024/03/07 06:33:53;;;;;;;38.95;17.25;;;;;;;7.61;92.17;99720.72;5033382;28;20017;-42
2024/03/07 06:36:18;;;;;;;33.80;16.48;;;;;;;7.44;93.01;99731.53;5033477;28;20493;-41
2024/03/07 06:38:44;;;;;;;34.95;16.92;;;;;;;7.35;92.83;99727.31;5033292;28;20025;-42
2024/03/07 06:41:10;;;;;;;34.22;15.93;;;;;;;7.19;94.75;99727.50;5032428;28;20395;-39
2024/03/07 06:43:35;;;;;;;35.88;17.05;;;;;;;7.51;94.00;99731.59;5048618;28;20091;-40
2024/03/07 06:46:01;;;;;;;35.42;16.42;;;;;;;7.42;94.34;99724.75;5053001;28;20431;-39
2024/03/07 06:48:26;;;;;;;34.67;16.10;;;;;;;7.54;93.96;99725.94;5052735;28;20029;-39
2024/03/07 06:50:52;;;;;;;32.22;16.63;;;;;;;7.61;93.29;99731.31;5052133;28;20473;-39
2024/03/07 06:53:17;;;;;;;39.17;16.65;;;;;;;7.85;91.83;99721.44;5052273;28;20028;-40
2024/03/07 06:55:43;;;;;;;34.35;16.42;;;;;;;7.43;93.46;99729.06;5052404;28;20025;-41
2024/03/07 06:58:10;;;;;;;31.30;15.73;;;;;;;7.93;91.91;99727.41;5052136;28;20031;-40
2024/03/07 07:00:35;;;;;;;29.48;15.38;;;;;;;7.73;92.03;99735.16;5052554;28;20025;-39
2024/03/07 07:03:04;;;;;;;34.85;16.60;;;;;;;7.74;91.90;99738.63;5052399;28;20526;-39
2024/03/07 07:05:30;;;;;;;35.92;15.95;;;;;;;7.61;93.29;99736.59;5052148;28;20043;-27
2024/03/07 07:07:55;;;;;;;31.10;17.05;;;;;;;7.79;92.99;99733.59;5052076;28;20021;-41
2024/03/07 07:10:23;;;;;;;29.40;15.23;;;;;;;7.77;92.56;99746.19;5051961;28;20036;-40
2024/03/07 07:12:49;;;;;;;29.25;14.90;;;;;;;7.77;93.79;99741.72;5051863;28;20021;-40
2024/03/07 07:15:20;;;;;;;33.28;16.25;;;;;;;7.77;91.56;99740.91;5050298;28;20021;-40
2024/03/07 07:17:46;;;;;;;31.95;15.05;;;;;;;7.69;91.03;99728.59;5051871;28;20090;-42
2024/03/07 07:20:14;;;;;;;35.03;15.65;;;;;;;7.93;90.07;99742.50;5051773;28;20033;-39
2024/03/07 07:22:44;;;;;;;29.85;14.73;;;;;;;8.00;89.42;99736.28;5051280;28;20128;-41
2024/03/07 07:25:13;;;;;;;34.95;17.02;;;;;;;7.72;91.63;99733.50;5051460;28;20036;-40
2024/03/07 07:27:48;;;;;;;29.98;16.02;;;;;;;8.01;90.20;99734.44;5051726;28;20033;-42
2024/03/07 07:30:15;;;;;;;29.63;14.20;;;;;;;7.99;88.50;99739.91;5051782;28;20429;-42
2024/03/07 07:32:43;;;;;;;25.95;13.55;;;;;;;8.05;88.08;99742.84;5051363;28;20118;-39
2024/03/07 07:35:11;;;;;;;25.98;13.85;;;;;;;7.98;88.18;99748.06;5050160;28;20032;-40
2024/03/07 07:37:48;;;;;;;29.63;14.60;;;;;;;8.11;87.53;99750.88;5031118;28;20035;-37
2024/03/07 07:40:18;;;;;;;31.95;14.52;;;;;;;8.05;88.02;99751.59;5045078;28;20024;-40
2024/03/07 07:42:44;;;;;;;;;;;;;;;8.05;87.96;99767.50;5050420;28;20028;-43
2024/03/07 07:45:11;;;;;;;27.77;13.18;;;;;;;8.09;87.04;99768.81;5048064;28;19923;-41
2024/03/07 07:47:41;;;;;;;26.48;12.95;;;;;;;8.75;84.84;99762.53;5044663;28;20021;-41
2024/03/07 07:50:20;;;;;;;24.67;12.70;;;;;;;8.73;83.95;99765.38;5042355;28;20425;-39
2024/03/07 07:52:51;;;;;;;24.60;12.40;;;;;;;8.50;84.28;99760.28;5040870;28;20039;-38
2024/03/07 07:55:21;;;;;;;26.67;13.18;;;;;;;8.52;84.78;99760.91;5043955;28;20037;-38
2024/03/07 07:57:54;;;;;;;26.95;13.65;;;;;;;8.51;84.49;99764.59;5043686;28;20408;-43
2024/03/07 08:00:22;;;;;;;28.95;13.40;;;;;;;8.05;86.48;99761.38;5050600;28;20401;-40
2024/03/07 08:03:01;;;;;;;24.75;13.65;;;;;;;8.21;85.75;99769.13;5050417;28;20024;-42
2024/03/07 08:05:37;;;;;;;25.95;13.45;;;;;;;8.01;86.67;99763.59;5050734;28;20103;-41
2024/03/07 08:08:05;;;;;;;28.13;13.25;;;;;;;8.22;85.89;99761.00;5051005;28;20032;-43
2024/03/07 08:10:32;;;;;;;27.48;13.55;;;;;;;8.15;85.72;99764.59;5050740;28;20028;-42
2024/03/07 08:12:58;;;;;;;29.67;14.05;;;;;;;8.29;85.61;99778.81;5050262;28;20017;-39
2024/03/07 08:15:26;;;;;;;31.05;13.27;;;;;;;8.13;86.12;99780.66;5050042;28;20485;-39
2024/03/07 08:17:52;;;;;;;28.02;14.18;;;;;;;8.13;86.96;99777.19;5034816;28;20045;-40
2024/03/07 08:20:22;;;;;;;28.80;13.60;;;;;;;7.95;87.61;99782.88;5050416;28;20025;-40
2024/03/07 08:22:52;;;;;;;26.25;13.25;;;;;;;7.87;87.65;99777.69;5049910;28;20162;-38
2024/03/07 08:25:20;;;;;;;30.55;14.05;;;;;;;8.05;88.17;99787.91;5050141;28;20106;-41
2024/03/07 08:27:48;;;;;;;27.65;13.63;;;;;;;7.79;88.43;99768.03;5050427;28;20116;-39
2024/03/07 08:30:15;;;;;;;26.93;13.37;;;;;;;8.24;87.24;99789.94;5050779;28;20039;-40
2024/03/07 08:32:42;;;;;;;25.60;13.15;;;;;;;8.35;86.73;99784.16;5050662;28;20049;-39
2024/03/07 08:35:11;;;;;;;29.85;13.63;;;;;;;8.75;85.12;99794.38;5050367;28;20033;-40
2024/03/07 08:37:40;;;;;;;33.17;13.80;;;;;;;8.57;84.97;99792.19;5049580;28;20075;-40
2024/03/07 08:40:09;;;;;;;32.13;15.70;;;;;;;8.72;84.93;99792.94;5050410;28;20110;-42
2024/03/07 08:42:36;;;;;;;37.10;17.88;;;;;;;8.49;85.86;99794.94;5044799;28;20045;-40
2024/03/07 08:45:04;;;;;;;32.42;15.27;;;;;;;8.43;86.02;99796.50;5040050;28;20064;-43
2024/03/07 08:47:33;;;;;;;36.60;16.90;;;;;;;8.53;86.40;99794.38;5049893;28;20500;-37
2024/03/07 08:49:59;;;;;;;32.03;14.57;;;;;;;8.65;85.54;99800.00;5050255;28;20031;-40
2024/03/07 08:52:25;;;;;;;33.10;14.80;;;;;;;8.51;85.83;99806.19;5050159;28;20025;-40
2024/03/07 08:54:50;;;;;;;33.25;16.38;;;;;;;8.68;85.78;99801.44;5050795;28;20032;-43
2024/03/07 08:57:19;;;;;;;36.10;16.83;;;;;;;8.78;85.76;99801.97;5050535;28;20029;-38
2024/03/07 08:59:45;;;;;;;32.20;15.40;;;;;;;8.64;85.34;99800.19;5050665;28;20036;-41
2024/03/07 09:02:13;;;;;;;32.78;15.82;;;;;;;8.59;85.44;99798.13;5050036;28;20090;-42
2024/03/07 09:04:39;;;;;;;34.10;15.05;;;;;;;8.22;88.07;99808.72;5053024;28;20110;-41
2024/03/07 09:07:06;;;;;;;38.13;17.25;;;;;;;8.45;86.07;99797.13;5053919;28;20492;-41
2024/03/07 09:09:31;;;;;;;33.67;17.05;;;;;;;8.54;86.10;99811.13;5054237;28;20406;-39
2024/03/07 09:11:57;;;;;;;34.45;17.38;;;;;;;8.34;86.14;99809.06;5054261;28;20032;-39
2024/03/07 09:14:23;;;;;;;39.97;18.70;;;;;;;8.57;85.55;99806.25;5051641;28;20032;-41
2024/03/07 09:16:49;;;;;;;35.20;18.40;;;;;;;8.86;84.01;99819.59;5041109;28;20025;-43
2024/03/07 09:19:19;;;;;;;44.45;19.73;;;;;;;8.97;83.40;99811.13;5053551;28;20412;-39
2024/03/07 09:21:46;;;;;;;35.35;19.13;;;;;;;8.78;83.87;99817.88;5053831;28;20528;-40
2024/03/07 09:24:11;;;;;;;41.03;18.88;;;;;;;8.73;84.88;99823.75;5053547;28;20031;-40
2024/03/07 09:26:36;;;;;;;38.75;19.30;;;;;;;8.77;84.59;99816.22;5053868;28;20049;-39
2024/03/07 09:29:05;;;;;;;40.17;19.52;;;;;;;9.14;83.30;99815.13;5053675;28;20045;-39
2024/03/07 09:31:33;;;;;;;38.63;19.00;;;;;;;9.25;82.38;99812.97;5053499;28;20541;-39
2024/03/07 09:33:59;;;;;;;38.75;18.67;;;;;;;9.16;82.25;99817.59;5051487;28;20090;-40
2024/03/07 09:36:25;;;;;;;41.50;19.45;;;;;;;9.05;82.61;99824.25;5041385;28;20191;-41
2024/03/07 09:38:50;;;;;;;40.38;20.13;;;;;;;9.14;83.22;99819.63;5049061;28;20049;-41
2024/03/07 09:41:19;;;;;;;37.85;19.20;;;;;;;9.26;82.73;99812.78;5040976;28;20076;-39
2024/03/07 09:43:47;;;;;;;40.55;21.05;;;;;;;9.30;81.56;99835.25;5049767;28;20346;-41
2024/03/07 09:46:14;;;;;;;41.75;20.85;;;;;;;9.45;81.45;99829.06;5042459;28;20036;-39
2024/03/07 09:48:40;;;;;;;43.92;21.75;;;;;;;9.36;82.23;99836.34;5037468;28;20025;-40
2024/03/07 09:51:10;;;;;;;44.72;21.55;;;;;;;9.49;81.42;99835.63;5052793;28;20025;-40
2024/03/07 09:53:37;;;;;;;45.63;21.92;;;;;;;9.52;80.26;99844.03;5046821;28;20017;-40
2024/03/07 09:56:06;;;;;;;45.10;22.98;;;;;;;9.75;79.70;99845.59;5043377;28;20022;-41
2024/03/07 09:58:36;;;;;;;45.78;22.50;;;;;;;9.69;79.43;99847.19;5041502;28;20041;-42
2024/03/07 10:01:02;;;;;;;48.65;23.13;;;;;;;9.57;80.50;99848.72;5044787;28;20445;-41
2024/03/07 10:03:30;;;;;;;43.22;22.92;;;;;;;9.86;79.47;99849.53;5045081;28;20028;-41
2024/03/07 10:05:55;;;;;;;54.13;25.42;;;;;;;9.76;79.20;99848.03;5043398;28;20013;-38
2024/03/07 10:08:23;;;;;;;50.78;22.52;;;;;;;9.61;80.17;99838.53;5045216;28;20028;-40
2024/03/07 10:10:50;;;;;;;48.83;22.73;;;;;;;9.43;81.03;99842.53;5039057;28;20026;-41
2024/03/07 10:13:17;;;;;;;44.88;21.55;;;;;;;9.44;81.00;99846.00;5050684;28;20108;-39
2024/03/07 10:15:43;;;;;;;45.17;22.65;;;;;;;9.54;81.07;99838.53;5050704;28;20033;-40
2024/03/07 10:18:13;;;;;;;45.65;23.13;;;;;;;9.42;81.28;99840.06;5034942;28;20024;-41
2024/03/07 10:20:39;;;;;;;51.63;23.27;;;;;;;9.26;81.97;99846.47;5032413;28;20032;-40
2024/03/07 10:23:07;;;;;;;48.08;22.70;;;;;;;8.85;83.82;99850.59;5046179;28;20104;-40
2024/03/07 10:25:33;;;;;;;47.67;22.88;;;;;;;9.02;83.71;99851.16;5040583;28;20041;-39
2024/03/07 10:28:00;;;;;;;46.38;23.17;;;;;;;9.04;83.30;99856.28;5051856;28;20028;-41
2024/03/07 10:30:26;;;;;;;45.58;22.85;;;;;;;9.20;82.07;99845.41;5051875;28;20031;-46
2024/03/07 10:32:55;;;;;;;49.42;23.42;;;;;;;9.37;82.21;99854.72;5051998;28;20025;-41
2024/03/07 10:35:24;;;;;;;46.47;21.88;;;;;;;9.18;83.45;99844.78;5049756;28;20021;-39
2024/03/07 10:37:54;;;;;;;45.72;22.17;;;;;;;9.22;83.83;99847.88;5049167;28;20017;-40
2024/03/07 10:40:22;;;;;;;45.83;22.65;;;;;;;8.98;85.14;99860.53;5052170;28;20025;-40
2024/03/07 10:42:51;;;;;;;49.03;23.55;;;;;;;8.86;87.15;99856.75;5051772;28;20024;-41
2024/03/07 10:45:17;;;;;;;;;;;;;;;8.76;86.99;99855.22;5052519;28;20051;-41
2024/03/07 10:47:45;;;;;;;44.78;21.15;;;;;;;8.70;88.05;99857.78;5052253;28;19908;-41
2024/03/07 10:50:33;;;;;;;43.58;22.25;;;;;;;8.90;87.21;99856.16;5051282;28;20504;-39
2024/03/07 10:53:07;;;;;;;41.35;21.48;;;;;;;8.86;87.19;99857.56;5049775;28;20017;-40
2024/03/07 10:55:45;;;;;;;41.42;22.08;;;;;;;8.64;88.24;99850.59;5038352;28;20021;-41
2024/03/07 10:58:42;;;;;;;49.67;23.35;;;;;;;8.90;88.29;99850.84;5052560;28;20033;-42
2024/03/07 11:01:12;;;;;;;49.50;25.05;;;;;;;8.70;89.84;99850.69;5045160;28;20029;-41
2024/03/07 11:03:39;;;;;;;48.40;23.77;;;;;;;8.56;90.20;99847.03;5051478;28;20021;-40
2024/03/07 11:06:11;;;;;;;44.85;23.08;;;;;;;8.51;90.06;99856.56;5051263;28;20554;-41
2024/03/07 11:08:39;;;;;;;43.05;23.40;;;;;;;8.56;89.94;99851.53;5051608;28;20477;-40
2024/03/07 11:11:06;;;;;;;52.92;26.60;;;;;;;8.83;89.40;99849.16;5051271;28;20058;-40
2024/03/07 11:13:33;;;;;;;51.28;23.80;;;;;;;8.74;90.47;99853.78;5051007;28;20544;-43
2024/03/07 11:16:00;;;;;;;47.60;24.13;;;;;;;8.60;90.56;99839.53;5051075;28;20025;-40
2024/03/07 11:18:26;;;;;;;47.67;23.77;;;;;;;8.73;90.03;99842.31;5051351;28;20039;-40
2024/03/07 11:20:52;;;;;;;48.40;24.58;;;;;;;8.83;89.24;99828.72;5051201;28;20025;-42
2024/03/07 11:23:33;;;;;;;47.15;23.58;;;;;;;8.76;89.71;99830.53;5049494;28;20044;-44
2024/03/07 11:26:07;;;;;;;49.80;24.48;;;;;;;8.51;90.41;99832.69;5051387;28;20045;-43